createdAt,value
2023-01-11T00:00:18.400Z,101041.81
2023-01-11T00:02:45.982Z,101047.38
2023-01-11T00:05:12.473Z,101040.41
2023-01-11T00:07:40.881Z,101038.81
2023-01-11T00:10:08.636Z,101030.75
2023-01-11T00:12:35.192Z,101042.88
2023-01-11T00:15:01.721Z,101031.06
2023-01-11T00:17:29.097Z,101034.06
2023-01-11T00:19:55.655Z,101030.28
2023-01-11T00:22:22.469Z,101023.81
2023-01-11T00:24:49.015Z,101014.56
2023-01-11T00:27:15.555Z,101006.53
2023-01-11T00:29:42.201Z,101006.94
2023-01-11T00:32:08.745Z,101004.25
2023-01-11T00:34:35.291Z,101008.81
2023-01-11T00:37:01.923Z,100998.56
2023-01-11T00:39:28.724Z,100997.28
2023-01-11T00:42:13.960Z,100985.97
2023-01-11T00:44:59.046Z,100988.38
2023-01-11T00:47:44.975Z,100983.59
2023-01-11T00:50:11.757Z,100980.81
2023-01-11T00:52:38.304Z,100978.22
2023-01-11T00:55:05.176Z,100972.47
2023-01-11T00:57:31.666Z,100964.44
2023-01-11T00:59:58.469Z,100963.25
2023-01-11T01:02:25.052Z,100969.22
2023-01-11T01:04:51.594Z,100964.56
2023-01-11T01:07:18.127Z,100959.19
2023-01-11T01:09:44.692Z,100954.53
2023-01-11T01:12:11.283Z,100945.38
2023-01-11T01:14:37.784Z,100950.66
2023-01-11T01:17:10.129Z,100956.22
2023-01-11T01:19:38.308Z,100951.03
2023-01-11T01:22:04.959Z,100953.34
2023-01-11T01:24:31.454Z,100952.44
2023-01-11T01:26:58.429Z,100960.56
2023-01-11T01:29:25.433Z,100951.66
2023-01-11T01:31:52.088Z,100956.91
2023-01-11T01:34:18.576Z,100958.41
2023-01-11T01:36:45.127Z,100957.50
2023-01-11T01:39:12.226Z,100950.94
2023-01-11T01:41:39.063Z,100948.84
2023-01-11T01:44:43.917Z,100939.72
2023-01-11T01:47:10.775Z,100933.44
2023-01-11T01:49:37.534Z,100928.28
2023-01-11T01:52:04.195Z,100930.25
2023-01-11T01:54:34.106Z,100922.19
2023-01-11T01:57:03.644Z,100925.88
2023-01-11T01:59:31.504Z,100905.50
2023-01-11T02:01:58.254Z,100909.59
2023-01-11T02:04:35.780Z,100911.13
2023-01-11T02:07:04.991Z,100904.06
2023-01-11T02:09:43.569Z,100894.00
2023-01-11T02:12:10.379Z,100881.63
2023-01-11T02:14:38.159Z,100877.94
2023-01-11T02:17:04.979Z,100878.34
2023-01-11T02:19:51.880Z,100873.22
2023-01-11T02:22:43.062Z,100861.38
2023-01-11T02:25:15.704Z,100865.81
2023-01-11T02:28:01.850Z,100861.72
2023-01-11T02:30:37.263Z,100847.97
2023-01-11T02:33:19.863Z,100834.91
2023-01-11T02:36:06.075Z,100845.75
2023-01-11T02:38:53.416Z,100834.47
2023-01-11T02:41:27.553Z,100838.44
2023-01-11T02:44:19.400Z,100838.63
2023-01-11T02:46:55.413Z,100832.22
2023-01-11T02:49:34.959Z,100830.03
2023-01-11T02:52:22.909Z,100830.94
2023-01-11T02:54:55.626Z,100830.41
2023-01-11T02:57:23.086Z,100823.34
2023-01-11T02:59:50.796Z,100819.91
2023-01-11T03:02:18.135Z,100809.66
2023-01-11T03:04:44.758Z,100811.78
2023-01-11T03:07:15.094Z,100800.22
2023-01-11T03:09:56.734Z,100806.69
2023-01-11T03:12:52.696Z,100789.91
2023-01-11T03:15:48.602Z,100791.06
2023-01-11T03:18:47.351Z,100788.66
2023-01-11T03:21:44.245Z,100789.28
2023-01-11T03:24:23.257Z,100788.03
2023-01-11T03:26:59.848Z,100778.28
2023-01-11T03:29:34.140Z,100775.00
2023-01-11T03:32:03.636Z,100780.47
2023-01-11T03:34:37.795Z,100777.75
2023-01-11T03:37:08.158Z,100770.06
2023-01-11T03:39:37.377Z,100771.66
2023-01-11T03:42:06.276Z,100758.75
2023-01-11T03:44:36.219Z,100768.50
2023-01-11T03:47:08.348Z,100765.63
2023-01-11T03:49:38.726Z,100766.94
2023-01-11T03:52:07.692Z,100758.84
2023-01-11T03:54:34.353Z,100750.47
2023-01-11T03:57:07.796Z,100754.31
2023-01-11T03:59:34.579Z,100743.09
2023-01-11T04:02:01.412Z,100752.31
2023-01-11T04:04:28.494Z,100755.00
2023-01-11T04:06:55.161Z,100747.56
2023-01-11T04:09:21.984Z,100746.97
2023-01-11T04:11:48.609Z,100745.38
2023-01-11T04:14:15.244Z,100735.25
2023-01-11T04:16:41.845Z,100741.88
2023-01-11T04:19:08.382Z,100726.47
2023-01-11T04:21:34.898Z,100731.78
2023-01-11T04:24:01.381Z,100739.81
2023-01-11T04:26:27.916Z,100725.75
2023-01-11T04:28:54.641Z,100725.50
2023-01-11T04:31:21.293Z,100719.00
2023-01-11T04:33:47.927Z,100719.72
2023-01-11T04:36:14.473Z,100705.63
2023-01-11T04:38:41.049Z,100702.59
2023-01-11T04:41:26.005Z,100706.38
2023-01-11T04:43:55.327Z,100699.16
2023-01-11T04:46:22.802Z,100706.38
2023-01-11T04:48:49.803Z,100697.38
2023-01-11T04:51:16.590Z,100688.06
2023-01-11T04:53:43.109Z,100693.78
2023-01-11T04:56:11.974Z,100679.53
2023-01-11T04:58:38.555Z,100681.75
2023-01-11T05:01:09.892Z,100689.22
2023-01-11T05:03:36.544Z,100672.94
2023-01-11T05:06:03.398Z,100674.97
2023-01-11T05:08:30.334Z,100669.59
2023-01-11T05:10:59.016Z,100663.91
2023-01-11T05:13:41.555Z,100665.84
2023-01-11T05:16:19.776Z,100663.16
2023-01-11T05:18:56.288Z,100672.63
2023-01-11T05:21:25.954Z,100656.81
2023-01-11T05:23:53.474Z,100653.66
2023-01-11T05:26:25.121Z,100651.31
2023-01-11T05:28:52.140Z,100655.56
2023-01-11T05:31:19.249Z,100651.59
2023-01-11T05:33:45.879Z,100656.81
2023-01-11T05:36:14.621Z,100656.97
2023-01-11T05:38:41.118Z,100650.19
2023-01-11T05:41:09.271Z,100637.72
2023-01-11T05:44:06.323Z,100638.63
2023-01-11T05:46:34.060Z,100640.53
2023-01-11T05:49:01.163Z,100627.13
2023-01-11T05:51:30.635Z,100630.25
2023-01-11T05:53:57.757Z,100636.75
2023-01-11T05:56:24.416Z,100633.91
2023-01-11T05:58:51.385Z,100629.31
2023-01-11T06:01:19.947Z,100634.22
2023-01-11T06:03:46.550Z,100626.16
2023-01-11T06:06:13.666Z,100624.72
2023-01-11T06:08:40.524Z,100625.84
2023-01-11T06:11:07.339Z,100612.72
2023-01-11T06:13:34.005Z,100617.59
2023-01-11T06:16:08.900Z,100604.47
2023-01-11T06:18:37.804Z,100608.59
2023-01-11T06:21:05.237Z,100624.88
2023-01-11T06:23:33.431Z,100611.94
2023-01-11T06:26:04.571Z,100606.72
2023-01-11T06:28:31.548Z,100597.84
2023-01-11T06:30:59.303Z,100606.56
2023-01-11T06:33:27.759Z,100598.16
2023-01-11T06:35:54.976Z,100600.06
2023-01-11T06:38:22.678Z,100600.22
2023-01-11T06:41:03.073Z,100598.31
2023-01-11T06:43:30.544Z,100602.59
2023-01-11T06:45:57.836Z,100601.78
2023-01-11T06:48:24.711Z,100598.00
2023-01-11T06:50:55.957Z,100605.88
2023-01-11T06:53:23.422Z,100607.97
2023-01-11T06:55:54.124Z,100612.53
2023-01-11T06:58:23.672Z,100608.44
2023-01-11T07:00:52.083Z,100613.00
2023-01-11T07:03:20.507Z,100623.28
2023-01-11T07:05:47.257Z,100622.16
2023-01-11T07:08:14.179Z,100619.81
2023-01-11T07:10:41.267Z,100616.31
2023-01-11T07:13:07.859Z,100615.41
2023-01-11T07:15:34.872Z,100622.50
2023-01-11T07:18:01.747Z,100624.09
2023-01-11T07:20:28.502Z,100625.19
2023-01-11T07:22:59.432Z,100630.91
2023-01-11T07:25:29.795Z,100623.94
2023-01-11T07:27:57.950Z,100621.88
2023-01-11T07:30:25.217Z,100630.09
2023-01-11T07:32:51.749Z,100627.06
2023-01-11T07:35:18.236Z,100628.78
2023-01-11T07:37:45.570Z,100625.00
2023-01-11T07:40:12.863Z,100635.59
2023-01-11T07:42:58.114Z,100624.53
2023-01-11T07:45:31.507Z,100635.28
2023-01-11T07:48:05.203Z,100621.69
2023-01-11T07:50:31.687Z,100636.88
2023-01-11T07:52:58.262Z,100621.84
2023-01-11T07:55:25.141Z,100629.13
2023-01-11T07:57:51.645Z,100616.75
2023-01-11T08:00:18.682Z,100622.78
2023-01-11T08:02:49.975Z,100617.56
2023-01-11T08:05:16.643Z,100618.50
2023-01-11T08:07:43.160Z,100626.06
2023-01-11T08:10:10.005Z,100618.94
2023-01-11T08:13:01.383Z,100614.97
2023-01-11T08:15:27.918Z,100610.88
2023-01-11T08:17:54.498Z,100605.56
2023-01-11T08:20:21.084Z,100612.44
2023-01-11T08:22:48.534Z,100609.91
2023-01-11T08:25:15.069Z,100617.28
2023-01-11T08:27:41.924Z,100611.78
2023-01-11T08:30:09.106Z,100610.66
2023-01-11T08:32:35.587Z,100608.38
2023-01-11T08:35:02.108Z,100609.00
2023-01-11T08:37:28.616Z,100610.13
2023-01-11T08:39:56.624Z,100615.78
2023-01-11T08:42:23.170Z,100605.09
2023-01-11T08:44:49.696Z,100601.94
2023-01-11T08:47:16.175Z,100614.00
2023-01-11T08:49:43.087Z,100612.06
2023-01-11T08:52:13.740Z,100614.75
2023-01-11T08:54:41.217Z,100606.84
2023-01-11T08:57:07.713Z,100612.28
2023-01-11T08:59:34.272Z,100613.09
2023-01-11T09:02:02.734Z,100611.50
2023-01-11T09:04:29.283Z,100605.91
2023-01-11T09:06:55.766Z,100599.41
2023-01-11T09:09:22.494Z,100606.31
2023-01-11T09:11:54.828Z,100599.91
2023-01-11T09:14:25.576Z,100600.03
2023-01-11T09:16:52.709Z,100601.09
2023-01-11T09:19:19.192Z,100593.50
2023-01-11T09:21:48.318Z,100589.88
2023-01-11T09:24:14.845Z,100598.84
2023-01-11T09:26:44.028Z,100594.34
2023-01-11T09:29:11.421Z,100586.72
2023-01-11T09:31:38.351Z,100594.81
2023-01-11T09:34:05.471Z,100589.03
2023-01-11T09:36:33.272Z,100587.34
2023-01-11T09:39:02.100Z,100578.34
2023-01-11T09:41:50.836Z,100580.34
2023-01-11T09:44:23.153Z,100576.69
2023-01-11T09:46:56.491Z,100575.91
2023-01-11T09:49:28.400Z,100565.00
2023-01-11T09:52:15.616Z,100566.47
2023-01-11T09:54:43.232Z,100564.41
2023-01-11T09:57:18.520Z,100579.56
2023-01-11T09:59:52.903Z,100577.03
2023-01-11T10:02:30.640Z,100561.72
2023-01-11T10:05:07.822Z,100558.91
2023-01-11T10:18:31.357Z,100530.91
2023-01-11T10:19:41.048Z,100537.81
2023-01-11T10:22:32.761Z,100542.19
2023-01-11T10:25:05.581Z,100537.94
2023-01-11T10:27:40.814Z,100517.03
2023-01-11T10:30:44.449Z,100528.47
2023-01-11T10:33:29.183Z,100530.03
2023-01-11T10:36:50.414Z,100525.91
2023-01-11T10:39:55.609Z,100525.41
2023-01-11T10:42:24.077Z,100525.56
2023-01-11T10:45:04.311Z,100517.16
2023-01-11T10:47:44.780Z,100521.47
2023-01-11T10:50:35.888Z,100523.03
2023-01-11T10:53:15.775Z,100512.50
2023-01-11T10:55:59.257Z,100517.44
2023-01-11T10:58:49.212Z,100513.63
2023-01-11T11:01:36.654Z,100512.69
2023-01-11T11:04:16.065Z,100513.41
2023-01-11T11:06:55.444Z,100514.75
2023-01-11T11:09:41.972Z,100504.25
2023-01-11T11:12:12.813Z,100502.28
2023-01-11T11:14:49.055Z,100491.84
2023-01-11T11:17:24.588Z,100488.78
2023-01-11T11:19:52.501Z,100494.84
2023-01-11T11:22:20.015Z,100484.88
2023-01-11T11:24:53.483Z,100486.66
2023-01-11T11:27:29.063Z,100490.53
2023-01-11T11:29:57.113Z,100479.22
2023-01-11T11:32:31.901Z,100479.22
2023-01-11T11:34:58.490Z,100479.78
2023-01-11T11:37:28.364Z,100476.16
2023-01-11T11:39:55.442Z,100470.13
2023-01-11T11:42:22.824Z,100465.66
2023-01-11T11:45:16.216Z,100472.56
2023-01-11T11:47:44.081Z,100469.28
2023-01-11T11:50:42.000Z,100480.16
2023-01-11T11:53:08.290Z,100469.28
2023-01-11T11:55:35.420Z,100459.94
2023-01-11T11:58:08.456Z,100459.56
2023-01-11T12:00:41.583Z,100456.00
2023-01-11T12:03:14.259Z,100452.88
2023-01-11T12:05:49.928Z,100443.28
2023-01-11T12:08:16.885Z,100446.91
2023-01-11T12:10:53.034Z,100433.19
2023-01-11T12:13:38.293Z,100436.91
2023-01-11T12:16:08.061Z,100431.41
2023-01-11T12:18:37.501Z,100428.97
2023-01-11T12:21:23.276Z,100440.91
2023-01-11T12:24:17.165Z,100429.44
2023-01-11T12:27:01.351Z,100425.84
2023-01-11T12:29:36.894Z,100420.44
2023-01-11T12:32:30.744Z,100425.25
2023-01-11T12:35:01.193Z,100426.75
2023-01-11T12:38:14.310Z,100427.25
2023-01-11T12:40:51.314Z,100417.41
2023-01-11T12:43:38.689Z,100410.06
2023-01-11T12:46:28.571Z,100412.53
2023-01-11T12:49:19.976Z,100412.09
2023-01-11T12:52:01.775Z,100410.97
2023-01-11T12:54:42.689Z,100402.84
2023-01-11T12:57:32.687Z,100398.38
2023-01-11T13:00:10.384Z,100394.69
2023-01-11T13:02:55.883Z,100402.91
2023-01-11T13:05:44.192Z,100398.41
2023-01-11T13:08:26.656Z,100403.28
2023-01-11T13:11:08.180Z,100403.84
2023-01-11T13:13:48.531Z,100404.19
2023-01-11T13:16:29.325Z,100403.16
2023-01-11T13:19:05.686Z,100403.34
2023-01-11T13:21:35.461Z,100415.38
2023-01-11T13:24:10.454Z,100396.41
2023-01-11T13:26:39.664Z,100398.59
2023-01-11T13:29:24.664Z,100402.66
2023-01-11T13:31:51.748Z,100396.75
2023-01-11T13:34:40.829Z,100413.16
2023-01-11T13:37:27.965Z,100399.88
2023-01-11T13:39:59.380Z,100405.19
2023-01-11T13:42:43.821Z,100404.75
2023-01-11T13:45:18.121Z,100400.50
2023-01-11T13:47:53.486Z,100401.75
2023-01-11T13:50:52.505Z,100407.91
2023-01-11T13:53:28.919Z,100400.16
2023-01-11T13:56:03.256Z,100395.41
2023-01-11T13:58:37.373Z,100408.56
2023-01-11T14:01:10.150Z,100412.03
2023-01-11T14:03:47.348Z,100410.34
2023-01-11T14:06:32.901Z,100411.50
2023-01-11T14:09:25.268Z,100413.28
2023-01-11T14:12:09.031Z,100405.34
2023-01-11T14:15:00.821Z,100410.84
2023-01-11T14:17:45.988Z,100413.88
2023-01-11T14:20:28.818Z,100412.41
2023-01-11T14:23:04.798Z,100419.25
2023-01-11T14:25:37.779Z,100418.25
2023-01-11T14:28:19.445Z,100412.63
2023-01-11T14:31:09.558Z,100425.19
2023-01-11T14:34:13.822Z,100426.53
2023-01-11T14:36:52.269Z,100429.22
2023-01-11T14:39:37.484Z,100427.47
2023-01-11T14:42:38.810Z,100423.06
2023-01-11T14:45:16.982Z,100427.44
2023-01-11T14:48:08.738Z,100422.59
2023-01-11T14:51:05.709Z,100432.31
2023-01-11T14:53:37.213Z,100442.25
2023-01-11T14:56:42.167Z,100442.91
2023-01-11T14:59:32.993Z,100440.09
2023-01-11T15:02:05.678Z,100442.88
2023-01-11T15:04:33.458Z,100437.63
2023-01-11T15:07:00.392Z,100436.81
2023-01-11T15:09:43.731Z,100433.09
2023-01-11T15:12:14.521Z,100440.84
2023-01-11T15:14:47.563Z,100436.47
2023-01-11T15:17:38.061Z,100449.50
2023-01-11T15:20:10.278Z,100447.56
2023-01-11T15:22:37.181Z,100454.66
2023-01-11T15:25:19.087Z,100453.50
2023-01-11T15:27:46.209Z,100461.53
2023-01-11T15:30:37.613Z,100467.34
2023-01-11T15:33:19.679Z,100471.94
2023-01-11T15:35:55.985Z,100467.59
2023-01-11T15:38:37.493Z,100467.91
2023-01-11T15:41:24.221Z,100473.97
2023-01-11T15:44:28.032Z,100475.56
2023-01-11T15:47:17.138Z,100479.25
2023-01-11T15:50:21.592Z,100476.22
2023-01-11T15:53:19.632Z,100484.09
2023-01-11T15:56:17.025Z,100491.19
2023-01-11T15:59:13.989Z,100483.44
2023-01-11T16:02:17.130Z,100499.72
2023-01-11T16:04:50.181Z,100489.97
2023-01-11T16:07:28.462Z,100496.47
2023-01-11T16:10:08.399Z,100499.94
2023-01-11T16:12:56.999Z,100506.25
2023-01-11T16:15:29.930Z,100509.09
2023-01-11T16:18:02.559Z,100517.03
2023-01-11T16:20:29.241Z,100522.56
2023-01-11T16:23:04.040Z,100523.38
2023-01-11T16:25:33.121Z,100530.84
2023-01-11T16:28:00.437Z,100530.19
2023-01-11T16:30:28.340Z,100530.66
2023-01-11T16:33:34.420Z,100534.66
2023-01-11T16:36:13.984Z,100539.88
2023-01-11T16:38:57.116Z,100534.78
2023-01-11T16:41:25.018Z,100531.56
2023-01-11T16:44:34.192Z,100543.59
2023-01-11T16:47:03.711Z,100552.47
2023-01-11T16:49:30.572Z,100559.78
2023-01-11T16:52:00.374Z,100553.03
2023-01-11T16:54:30.929Z,100563.94
2023-01-11T16:56:58.311Z,100570.47
2023-01-11T16:59:31.309Z,100572.25
2023-01-11T17:02:00.296Z,100567.66
2023-01-11T17:04:32.926Z,100573.97
2023-01-11T17:07:23.530Z,100568.44
2023-01-11T17:09:53.151Z,100570.13
2023-01-11T17:12:22.989Z,100582.19
2023-01-11T17:15:17.499Z,100583.97
2023-01-11T17:17:44.077Z,100587.09
2023-01-11T17:20:18.832Z,100587.78
2023-01-11T17:22:46.321Z,100586.44
2023-01-11T17:25:19.813Z,100582.63
2023-01-11T17:27:51.118Z,100573.28
2023-01-11T17:30:23.334Z,100588.44
2023-01-11T17:32:52.738Z,100591.28
2023-01-11T17:35:24.098Z,100599.03
2023-01-11T17:37:52.536Z,100609.28
2023-01-11T17:40:26.506Z,100611.38
2023-01-11T17:43:14.099Z,100598.47
2023-01-11T17:45:42.317Z,100600.84
2023-01-11T17:48:14.846Z,100598.59
2023-01-11T17:50:49.972Z,100608.25
2023-01-11T17:53:26.853Z,100613.78
2023-01-11T17:56:00.787Z,100614.47
2023-01-11T17:58:37.641Z,100617.16
2023-01-11T18:01:04.364Z,100615.69
2023-01-11T18:03:39.656Z,100633.66
2023-01-11T18:06:12.467Z,100635.72
2023-01-11T18:08:47.248Z,100636.50
2023-01-11T18:11:22.263Z,100640.75
2023-01-11T18:13:51.897Z,100644.25
2023-01-11T18:16:22.472Z,100644.25
2023-01-11T18:18:50.434Z,100641.13
2023-01-11T18:21:26.108Z,100638.63
2023-01-11T18:24:14.467Z,100645.81
2023-01-11T18:26:45.589Z,100657.84
2023-01-11T18:29:42.514Z,100663.00
2023-01-11T18:32:16.973Z,100658.38
2023-01-11T18:34:46.935Z,100672.66
2023-01-11T18:37:14.068Z,100674.13
2023-01-11T18:39:42.998Z,100675.56
2023-01-11T18:42:16.680Z,100676.69
2023-01-11T18:44:46.300Z,100681.63
2023-01-11T18:47:24.478Z,100675.91
2023-01-11T18:49:52.474Z,100676.03
2023-01-11T18:52:20.908Z,100676.59
2023-01-11T18:54:48.464Z,100673.75
2023-01-11T18:57:15.350Z,100669.34
2023-01-11T18:59:48.283Z,100674.28
2023-01-11T19:02:26.637Z,100677.63
2023-01-11T19:04:54.835Z,100685.72
2023-01-11T19:07:21.984Z,100695.63
2023-01-11T19:09:49.254Z,100698.31
2023-01-11T19:12:17.287Z,100711.31
2023-01-11T19:14:44.311Z,100713.69
2023-01-11T19:17:11.847Z,100712.91
2023-01-11T19:19:38.646Z,100717.53
2023-01-11T19:22:05.754Z,100713.25
2023-01-11T19:24:32.370Z,100721.63
2023-01-11T19:26:59.471Z,100722.63
2023-01-11T19:29:26.068Z,100729.25
2023-01-11T19:31:53.243Z,100731.50
2023-01-11T19:34:19.785Z,100730.56
2023-01-11T19:36:46.465Z,100733.25
2023-01-11T19:39:13.051Z,100739.31
2023-01-11T19:41:54.988Z,100736.38
2023-01-11T19:44:22.533Z,100741.28
2023-01-11T19:46:56.746Z,100744.66
2023-01-11T19:49:27.638Z,100747.88
2023-01-11T19:51:54.835Z,100754.06
2023-01-11T19:54:22.042Z,100755.81
2023-01-11T19:56:49.542Z,100761.66
2023-01-11T19:59:16.096Z,100760.88
2023-01-11T20:01:42.947Z,100767.59
2023-01-11T20:04:10.864Z,100765.22
2023-01-11T20:06:40.199Z,100757.25
2023-01-11T20:09:07.283Z,100755.06
2023-01-11T20:11:33.802Z,100768.09
2023-01-11T20:14:00.293Z,100774.78
2023-01-11T20:16:27.836Z,100782.84
2023-01-11T20:18:56.187Z,100774.78
2023-01-11T20:21:24.199Z,100781.28
2023-01-11T20:23:51.035Z,100771.16
2023-01-11T20:26:17.841Z,100774.50
2023-01-11T20:28:49.609Z,100772.91
2023-01-11T20:31:17.141Z,100778.63
2023-01-11T20:33:44.473Z,100780.53
2023-01-11T20:36:15.558Z,100784.53
2023-01-11T20:38:41.997Z,100787.91
2023-01-11T20:41:33.736Z,100785.69
2023-01-11T20:44:01.288Z,100786.75
2023-01-11T20:46:28.260Z,100789.13
2023-01-11T20:48:54.947Z,100800.56
2023-01-11T20:51:21.646Z,100790.13
2023-01-11T20:53:48.156Z,100792.00
2023-01-11T20:56:14.983Z,100799.94
2023-01-11T20:58:41.785Z,100793.44
2023-01-11T21:01:10.340Z,100801.06
2023-01-11T21:03:37.171Z,100800.47
2023-01-11T21:06:05.185Z,100802.50
2023-01-11T21:08:32.176Z,100798.53
2023-01-11T21:11:05.928Z,100791.91
2023-01-11T21:13:33.026Z,100787.94
2023-01-11T21:16:09.302Z,100788.91
2023-01-11T21:18:35.807Z,100786.84
2023-01-11T21:21:02.297Z,100790.97
2023-01-11T21:23:28.885Z,100795.75
2023-01-11T21:25:55.443Z,100791.00
2023-01-11T21:28:22.013Z,100793.53
2023-01-11T21:30:48.528Z,100796.09
2023-01-11T21:33:15.925Z,100790.25
2023-01-11T21:35:42.418Z,100789.44
2023-01-11T21:38:08.947Z,100794.06
2023-01-11T21:40:35.454Z,100791.66
2023-01-11T21:43:01.934Z,100792.78
2023-01-11T21:45:28.760Z,100791.84
2023-01-11T21:47:55.418Z,100789.00
2023-01-11T21:50:22.103Z,100798.97
2023-01-11T21:52:48.639Z,100792.31
2023-01-11T21:55:15.237Z,100798.34
2023-01-11T21:57:41.706Z,100801.19
2023-01-11T22:00:08.708Z,100801.19
2023-01-11T22:02:38.707Z,100788.84
2023-01-11T22:05:05.632Z,100787.75
2023-01-11T22:07:33.108Z,100788.53
2023-01-11T22:10:04.897Z,100793.44
2023-01-11T22:12:33.268Z,100790.91
2023-01-11T22:14:59.769Z,100796.91
2023-01-11T22:17:26.277Z,100794.56
2023-01-11T22:19:53.565Z,100783.47
2023-01-11T22:22:20.066Z,100781.72
2023-01-11T22:24:46.607Z,100800.41
2023-01-11T22:27:13.142Z,100801.19
2023-01-11T22:29:43.173Z,100801.19
2023-01-11T22:32:09.662Z,100803.25
2023-01-11T22:34:39.016Z,100807.50
2023-01-11T22:37:06.361Z,100791.69
2023-01-11T22:39:32.893Z,100800.38
2023-01-11T22:41:59.460Z,100793.09
2023-01-11T22:44:25.958Z,100799.13
2023-01-11T22:46:52.509Z,100793.28
2023-01-11T22:49:19.665Z,100790.38
2023-01-11T22:51:46.255Z,100788.66
2023-01-11T22:54:13.142Z,100784.25
2023-01-11T22:56:40.221Z,100793.41
2023-01-11T22:59:06.785Z,100792.91
2023-01-11T23:01:35.629Z,100788.34
2023-01-11T23:04:02.753Z,100792.75
2023-01-11T23:06:32.158Z,100793.88
2023-01-11T23:08:59.720Z,100789.88
2023-01-11T23:11:47.470Z,100800.47
2023-01-11T23:14:18.496Z,100791.78
2023-01-11T23:16:45.373Z,100789.66
2023-01-11T23:19:12.172Z,100790.88
2023-01-11T23:21:42.301Z,100803.34
2023-01-11T23:24:09.061Z,100802.66
2023-01-11T23:26:35.474Z,100814.75
2023-01-11T23:29:02.001Z,100811.38
2023-01-11T23:31:29.467Z,100810.56
2023-01-11T23:33:56.914Z,100801.41
2023-01-11T23:36:23.939Z,100797.81
2023-01-11T23:38:50.774Z,100798.88
2023-01-11T23:41:36.483Z,100786.84
2023-01-11T23:44:04.552Z,100785.75
2023-01-11T23:46:49.656Z,100770.28
2023-01-11T23:49:16.143Z,100762.31
2023-01-11T23:51:42.631Z,100754.88
2023-01-11T23:54:09.386Z,100764.66
2023-01-11T23:56:35.781Z,100757.56
2023-01-11T23:59:02.361Z,100762.16
